Terminal Aerodrome Forecast
Issued by NWS Northern Indiana

Home | Current Version | Previous Version | Text Only | Print | Product List | Glossary Off
Versions: 1 2 3 4 5 6 7 8 9 10 11 12 13

000
FTUS43 KIWX 272300
TAFFWA
TAF
KFWA 272322Z 2800/2824 28006KT P6SM SCT050 BKN090
     FM280400 VRB02KT 6SM BR SKC
      TEMPO 2810/2812 3SM BR
     FM281400 11008KT P6SM FEW050=

USA.gov is the U.S. government's official web portal to all federal, state and local government web resources and services.